Time;durP1;ratioP1;P1;durP2;ratioP2;P2;SDS_P1;SDS_P2;PMS_P1;PMS_P2;Temp;Humidity;BMP_temperature;BMP_pressure;BME280_temperature;BME280_humidity;BME280_pressure;Samples;Min_cycle;Max_cycle;Signal;HPM_P1;HPM_P2
2021/04/13 00:01:21;;;;;;;7.42;3.77;;;;;;;3.99;72.84;97606.83;1857159;77;25733;-79
2021/04/13 00:04:12;;;;;;;7.05;4.15;;;;;;;3.95;72.84;97604.67;1857137;77;27038;-79
2021/04/13 00:06:50;;;;;;;6.00;3.92;;;;;;;3.94;72.83;97607.84;1856970;77;25677;-79
2021/04/13 00:09:31;;;;;;;6.58;4.22;;;;;;;3.94;72.68;97603.84;1823845;77;25880;-79
2021/04/13 00:12:10;;;;;;;5.80;4.42;;;;;;;3.84;72.76;97608.50;1857086;77;26471;-78
2021/04/13 00:14:43;;;;;;;7.53;5.22;;;;;;;3.83;72.87;97606.83;1857155;77;25696;-78
2021/04/13 00:17:14;;;;;;;8.15;5.25;;;;;;;3.86;73.03;97614.52;1857079;77;27500;-77
2021/04/13 00:20:13;;;;;;;6.83;4.78;;;;;;;3.91;73.09;97612.17;1857262;77;25683;-78
2021/04/13 00:22:41;;;;;;;7.12;4.67;;;;;;;3.91;72.84;97622.02;1856986;76;25825;-78
2021/04/13 00:25:13;;;;;;;9.63;5.90;;;;;;;3.81;72.77;97616.83;1824193;77;25819;-79
2021/04/13 00:27:40;;;;;;;5.95;3.87;;;;;;;3.82;73.03;97621.17;1856373;77;25721;-78
2021/04/13 00:30:16;;;;;;;7.40;5.00;;;;;;;3.83;73.05;97622.84;1857087;77;27527;-79
2021/04/13 00:32:54;;;;;;;8.60;4.95;;;;;;;3.80;72.93;97623.17;1857097;77;26055;-79
2021/04/13 00:35:31;;;;;;;9.18;5.30;;;;;;;3.76;72.94;97631.16;1856779;77;25707;-79
2021/04/13 00:38:31;;;;;;;5.60;4.55;;;;;;;3.78;73.09;97632.33;1857077;77;26234;-78
2021/04/13 00:41:15;;;;;;;6.70;4.33;;;;;;;3.76;72.90;97635.16;1773542;80;25840;-79
2021/04/13 00:44:01;;;;;;;5.55;4.22;;;;;;;3.72;72.99;97636.51;1773488;80;27581;-78
2021/04/13 00:46:52;;;;;;;7.17;4.67;;;;;;;3.67;72.90;97636.14;1773340;80;26381;-79
2021/04/13 00:49:24;;;;;;;7.53;4.25;;;;;;;3.64;73.02;97641.80;1773460;80;25719;-78
2021/04/13 00:52:05;;;;;;;6.25;4.78;;;;;;;3.63;72.99;97640.13;1773472;80;26034;-79
2021/04/13 00:54:43;;;;;;;6.03;4.72;;;;;;;3.65;72.97;97642.64;1773767;80;25905;-79
2021/04/13 01:00:00;;;;;;;6.75;3.95;;;;;;;3.58;72.91;97645.14;1887014;76;35366;-79
2021/04/13 01:02:32;;;;;;;6.50;3.70;;;;;;;3.51;72.85;97640.92;1857971;77;25687;-78
2021/04/13 01:05:16;;;;;;;5.78;3.42;;;;;;;3.47;72.86;97643.59;1857903;77;27557;-79
2021/04/13 01:07:46;;;;;;;5.50;3.60;;;;;;;3.45;72.86;97644.75;1857403;77;25754;-79
2021/04/13 01:10:36;;;;;;;5.92;3.83;;;;;;;3.42;72.90;97651.23;1858102;77;25653;-79
2021/04/13 01:13:14;;;;;;;4.97;3.58;;;;;;;3.40;72.83;97652.39;1857844;77;25632;-78
2021/04/13 01:15:46;;;;;;;6.08;3.72;;;;;;;3.36;72.94;97656.39;1857972;77;25753;-78
2021/04/13 01:18:36;;;;;;;4.03;3.27;;;;;;;3.39;72.97;97652.88;1857981;77;27489;-79
2021/04/13 01:21:44;;;;;;;4.30;3.25;;;;;;;3.40;72.97;97656.39;1857769;77;25796;-78
2021/04/13 01:24:20;;;;;;;4.17;3.30;;;;;;;3.39;73.02;97660.89;1857788;77;25737;-78
2021/04/13 01:26:46;;;;;;;4.00;2.70;;;;;;;3.39;73.10;97664.05;1856695;77;25711;-79
2021/04/13 01:29:17;;;;;;;4.47;3.27;;;;;;;3.37;72.99;97666.08;1857907;77;25251;-79
2021/04/13 01:31:51;;;;;;;5.08;3.45;;;;;;;3.29;72.93;97673.52;1857802;77;27483;-77
2021/04/13 01:34:27;;;;;;;4.75;3.40;;;;;;;3.28;73.06;97672.34;1825220;77;25748;-78
2021/04/13 01:37:16;;;;;;;6.08;3.85;;;;;;;3.27;73.05;97675.51;1857697;77;25733;-78
2021/04/13 01:39:51;;;;;;;6.05;3.35;;;;;;;3.24;73.18;97678.02;1857517;77;26238;-78
2021/04/13 01:42:17;;;;;;;4.95;3.42;;;;;;;3.22;73.04;97685.34;1857012;77;25876;-78
2021/04/13 01:44:59;;;;;;;5.90;3.83;;;;;;;3.16;73.06;97680.62;1857842;77;28547;-79
2021/04/13 01:47:27;;;;;;;6.37;3.83;;;;;;;3.10;72.97;97683.94;1857085;76;25811;-79
2021/04/13 01:50:05;;;;;;;4.03;3.17;;;;;;;3.04;73.02;97689.05;1857841;77;25764;-78
2021/04/13 01:52:37;;;;;;;3.80;3.12;;;;;;;2.96;72.93;97687.18;1857151;77;25782;-79
2021/04/13 01:55:18;;;;;;;3.27;2.80;;;;;;;2.85;72.71;97690.11;1857891;77;25681;-78
2021/04/13 01:58:13;;;;;;;3.40;2.55;;;;;;;2.78;72.98;97696.55;1857853;77;27499;-79
2021/04/13 02:00:52;;;;;;;4.22;3.00;;;;;;;2.72;72.82;97697.67;1857378;77;26134;-78
2021/04/13 02:03:30;;;;;;;4.67;3.10;;;;;;;2.59;72.71;97697.23;1855988;77;25742;-77
2021/04/13 02:06:15;;;;;;;4.60;3.12;;;;;;;2.53;73.24;97691.55;1825139;77;27346;-77
2021/04/13 02:08:51;;;;;;;3.92;3.20;;;;;;;2.51;73.17;97694.86;1856237;77;25669;-79
2021/04/13 02:11:26;;;;;;;4.10;3.12;;;;;;;2.46;73.22;97702.46;1857113;77;27657;-78
2021/04/13 02:14:00;;;;;;;4.87;3.75;;;;;;;2.41;73.31;97703.93;1857134;77;25673;-79
2021/04/13 02:16:42;;;;;;;4.58;3.50;;;;;;;2.38;73.40;97705.06;1857254;77;25745;-79
2021/04/13 02:19:11;;;;;;;3.58;3.10;;;;;;;2.39;73.57;97707.23;1856496;77;25728;-78
2021/04/13 02:21:49;;;;;;;2.87;2.40;;;;;;;2.40;73.40;97709.75;1857236;77;25683;-79
2021/04/13 02:24:21;;;;;;;7.00;3.08;;;;;;;2.36;73.51;97708.38;1857152;77;27976;-78
2021/04/13 02:26:56;;;;;;;4.45;2.70;;;;;;;2.32;73.49;97717.65;1857221;77;25673;-79
2021/04/13 02:32:23;;;;;;;2.90;2.60;;;;;;;2.38;73.77;97720.21;1849501;76;35296;-79
2021/04/13 02:35:01;;;;;;;3.17;2.60;;;;;;;2.34;73.74;97717.50;1820113;77;25342;-79
2021/04/13 02:37:42;;;;;;;3.98;2.62;;;;;;;2.32;73.81;97718.98;1807899;78;28467;-78
2021/04/13 02:40:21;;;;;;;4.30;2.30;;;;;;;2.23;73.75;97710.58;1819997;78;25669;-79
2021/04/13 02:42:53;;;;;;;4.25;2.52;;;;;;;2.26;74.00;97709.44;1820066;77;25672;-79
2021/04/13 02:45:46;;;;;;;5.00;2.62;;;;;;;2.29;73.94;97717.14;1820305;77;25749;-79
2021/04/13 02:51:06;;;;;;;4.10;2.15;;;;;;;2.29;73.81;97711.31;1873418;75;34741;-77
2021/04/13 02:53:53;;;;;;;4.45;2.60;;;;;;;2.19;73.89;97711.86;1852802;77;25726;-77
2021/04/13 02:56:28;;;;;;;4.05;2.20;;;;;;;2.22;73.93;97719.55;1852603;76;27489;-76
2021/04/13 02:59:16;;;;;;;3.92;2.50;;;;;;;2.21;73.95;97721.03;1852694;77;25707;-77
2021/04/13 03:01:58;;;;;;;3.47;2.70;;;;;;;2.18;74.06;97723.00;1852743;77;25757;-76
2021/04/13 03:04:27;;;;;;;3.10;2.25;;;;;;;2.22;74.07;97721.37;1851604;77;25695;-76
2021/04/13 03:06:57;;;;;;;3.92;2.70;;;;;;;2.21;73.87;97717.88;1852760;76;25726;-76
2021/04/13 03:09:28;;;;;;;4.00;2.08;;;;;;;2.19;73.78;97717.19;1852619;77;28938;-77
2021/04/13 03:12:00;;;;;;;2.67;1.72;;;;;;;2.17;73.78;97723.19;1852641;77;25720;-77
2021/04/13 03:14:41;;;;;;;3.85;2.35;;;;;;;2.16;73.86;97725.50;1852891;77;25693;-77
2021/04/13 03:17:13;;;;;;;4.22;2.50;;;;;;;2.15;73.96;97731.81;1852721;77;26199;-77
2021/04/13 03:19:44;;;;;;;4.20;2.30;;;;;;;2.22;74.11;97735.53;1852815;77;25730;-77
2021/04/13 03:22:12;;;;;;;4.30;2.70;;;;;;;2.29;74.14;97739.28;1852782;77;27489;-77
2021/04/13 03:24:44;;;;;;;5.85;3.08;;;;;;;2.25;73.95;97747.22;1852568;77;26301;-77
2021/04/13 03:27:27;;;;;;;4.58;2.00;;;;;;;2.29;74.03;97747.77;1818448;77;26646;-77
2021/04/13 03:30:21;;;;;;;3.75;2.67;;;;;;;2.25;74.00;97753.88;1819800;77;25793;-78
2021/04/13 03:32:56;;;;;;;4.60;2.95;;;;;;;2.19;73.98;97761.13;1852457;77;25803;-79
2021/04/13 03:35:27;;;;;;;5.62;2.90;;;;;;;2.11;74.13;97755.73;1852816;77;27667;-78
2021/04/13 03:37:58;;;;;;;5.60;2.92;;;;;;;2.13;74.21;97757.75;1852553;77;25804;-78
2021/04/13 03:40:29;;;;;;;3.98;2.85;;;;;;;2.10;74.15;97747.39;1852734;77;25825;-78
2021/04/13 03:43:06;;;;;;;4.00;2.92;;;;;;;2.11;74.26;97751.73;1852622;76;25752;-78
2021/04/13 03:45:37;;;;;;;4.17;3.10;;;;;;;2.14;74.21;97754.10;1852720;77;25699;-78
2021/04/13 03:48:21;;;;;;;3.67;3.00;;;;;;;2.14;74.23;97758.94;1852671;77;27495;-78
2021/04/13 03:51:05;;;;;;;3.87;2.80;;;;;;;2.10;74.17;97762.03;1852371;77;25694;-78
2021/04/13 03:53:39;;;;;;;4.80;3.27;;;;;;;2.10;74.18;97760.70;1852734;77;25658;-78
2021/04/13 03:56:14;;;;;;;5.40;3.33;;;;;;;2.11;74.26;97755.23;1852635;77;25879;-79
2021/04/13 03:58:50;;;;;;;5.15;3.22;;;;;;;2.11;74.26;97765.05;1852722;77;25669;-78
2021/04/13 04:01:23;;;;;;;5.35;3.45;;;;;;;2.09;74.25;97767.02;1852352;77;27484;-78
2021/04/13 04:04:04;;;;;;;6.10;3.80;;;;;;;2.10;74.32;97774.02;1851917;77;25619;-78
2021/04/13 04:06:51;;;;;;;8.63;4.17;;;;;;;2.07;74.33;97775.64;1852077;77;25713;-79
2021/04/13 04:09:35;;;;;;;9.35;5.60;;;;;;;2.08;74.31;97771.99;1851836;77;25817;-78
2021/04/13 04:15:10;;;;;;;6.37;5.10;;;;;;;2.12;74.39;97779.55;1873413;76;34741;-76
2021/04/13 04:17:46;;;;;;;11.70;6.35;;;;;;;2.10;74.32;97788.66;1852831;77;26183;-76
2021/04/13 04:20:15;;;;;;;7.50;5.42;;;;;;;2.06;74.27;97794.77;1852031;77;28806;-76
2021/04/13 04:22:55;;;;;;;7.92;6.62;;;;;;;2.07;74.29;97803.60;1852655;77;25725;-76
2021/04/13 04:25:36;;;;;;;10.48;7.10;;;;;;;2.07;74.34;97807.11;1852681;77;25762;-76
2021/04/13 04:30:50;;;;;;;9.35;7.30;;;;;;;2.11;74.46;97804.99;1873463;76;34712;-79
2021/04/13 04:33:41;;;;;;;10.72;8.08;;;;;;;2.10;74.42;97808.64;1852735;77;25726;-79
2021/04/13 04:36:31;;;;;;;8.05;6.72;;;;;;;2.10;74.44;97809.97;1852696;77;28456;-78
2021/04/13 04:39:31;;;;;;;9.00;7.30;;;;;;;2.09;74.44;97808.29;1780306;80;26148;-78
2021/04/13 04:42:07;;;;;;;25.02;10.93;;;;;;;2.08;74.65;97814.11;1780482;80;25758;-78
2021/04/13 04:44:35;;;;;;;20.60;10.45;;;;;;;2.13;74.52;97808.35;1745785;82;25698;-78
2021/04/13 04:47:02;;;;;;;31.80;13.78;;;;;;;2.07;74.40;97818.25;1714451;83;25742;-78
2021/04/13 04:49:39;;;;;;;13.83;8.95;;;;;;;2.05;74.53;97821.58;1714413;83;27513;-79
2021/04/13 04:52:08;;;;;;;13.60;8.68;;;;;;;2.05;74.48;97831.70;1735952;82;25755;-78
2021/04/13 04:54:35;;;;;;;10.43;7.28;;;;;;;2.03;74.48;97831.53;1735901;82;25747;-78
2021/04/13 04:57:04;;;;;;;12.93;8.65;;;;;;;1.96;74.52;97834.42;1735928;82;25744;-78
2021/04/13 04:59:31;;;;;;;9.20;7.05;;;;;;;1.96;74.65;97835.75;1736015;82;25957;-79
2021/04/13 05:01:59;;;;;;;10.13;7.83;;;;;;;2.03;74.68;97844.36;1735915;82;27506;-78
2021/04/13 05:04:26;;;;;;;14.30;11.08;;;;;;;2.02;74.42;97843.17;1735893;82;25791;-78
2021/04/13 05:06:53;;;;;;;14.73;9.60;;;;;;;1.98;74.35;97845.77;1735877;82;25971;-78
2021/04/13 05:09:21;;;;;;;7.53;6.20;;;;;;;1.98;74.40;97847.94;1735893;81;26044;-79
2021/04/13 05:11:48;;;;;;;19.40;10.90;;;;;;;1.99;74.40;97846.95;1735956;82;25777;-78
2021/04/13 05:14:16;;;;;;;55.80;23.73;;;;;;;2.04;74.47;97851.85;1785404;80;28479;-79
2021/04/13 05:16:43;;;;;;;94.87;35.98;;;;;;;2.06;74.38;97856.02;1801438;79;26382;-77
2021/04/13 05:19:10;;;;;;;35.92;17.20;;;;;;;2.04;74.37;97850.03;1801514;79;26257;-79
2021/04/13 05:21:38;;;;;;;21.57;14.73;;;;;;;2.03;74.20;97855.50;1801526;79;26368;-79
2021/04/13 05:24:06;;;;;;;19.42;12.70;;;;;;;2.00;74.18;97854.45;1801422;79;25776;-78
2021/04/13 05:26:34;;;;;;;12.25;9.08;;;;;;;1.97;74.23;97853.41;1801487;79;28456;-78
2021/04/13 05:29:02;;;;;;;11.70;8.23;;;;;;;1.98;74.34;97857.75;1800428;79;25665;-78
2021/04/13 05:31:29;;;;;;;10.70;7.97;;;;;;;2.00;74.29;97858.45;1795649;79;25746;-78
2021/04/13 05:33:57;;;;;;;15.13;9.25;;;;;;;1.89;74.31;97852.82;1795494;79;25729;-78
2021/04/13 05:36:24;;;;;;;9.98;7.92;;;;;;;1.90;74.40;97857.66;1795521;79;25721;-78
2021/04/13 05:38:52;;;;;;;18.77;14.58;;;;;;;1.86;74.20;97856.26;1795587;79;27512;-78
2021/04/13 05:41:20;;;;;;;14.00;11.25;;;;;;;1.78;74.37;97859.17;1795073;79;26067;-79
2021/04/13 05:43:48;;;;;;;10.13;8.63;;;;;;;1.83;74.48;97864.53;1794991;79;25647;-78
2021/04/13 05:46:20;;;;;;;10.80;8.58;;;;;;;1.85;74.56;97862.56;1795027;79;26333;-78
2021/04/13 05:48:47;;;;;;;12.55;8.88;;;;;;;1.85;74.56;97870.55;1795106;79;25781;-78
2021/04/13 05:51:15;;;;;;;11.60;8.13;;;;;;;1.85;74.53;97869.22;1794936;79;28017;-78
2021/04/13 05:53:42;;;;;;;10.32;8.20;;;;;;;1.88;74.71;97871.59;1794809;79;25718;-78
2021/04/13 05:56:17;;;;;;;10.38;8.43;;;;;;;1.94;74.70;97869.67;1794899;79;25781;-78
2021/04/13 05:58:49;;;;;;;10.98;7.60;;;;;;;1.97;74.63;97875.55;1794900;79;26441;-78
2021/04/13 06:01:20;;;;;;;11.85;8.40;;;;;;;1.98;74.56;97884.38;1795238;79;28320;-78
2021/04/13 06:03:47;;;;;;;15.63;11.53;;;;;;;1.92;74.45;97889.81;1794971;79;27712;-78
2021/04/13 06:06:15;;;;;;;15.72;11.65;;;;;;;1.85;74.62;97887.36;1794795;79;25781;-78
2021/04/13 06:08:43;;;;;;;24.67;17.20;;;;;;;1.88;74.66;97892.41;1794878;79;25509;-79
2021/04/13 06:11:21;;;;;;;70.17;40.28;;;;;;;1.80;74.56;97895.80;1794848;79;25705;-78
2021/04/13 06:13:50;;;;;;;99.77;44.70;;;;;;;1.84;74.80;97891.50;1795059;79;25779;-78
2021/04/13 06:16:20;;;;;;;271.48;99.40;;;;;;;1.89;74.87;97888.76;1794978;79;28395;-78
2021/04/13 06:18:47;;;;;;;176.93;68.83;;;;;;;1.93;74.89;97895.97;1794795;79;26066;-78
2021/04/13 06:21:14;;;;;;;116.37;48.65;;;;;;;1.98;74.85;97897.69;1794942;79;25295;-79
2021/04/13 06:23:42;;;;;;;83.90;37.65;;;;;;;1.98;74.73;97902.52;1794799;79;25346;-78
2021/04/13 06:26:10;;;;;;;37.78;20.30;;;;;;;2.03;74.73;97907.42;1794859;79;25774;-78
2021/04/13 06:28:38;;;;;;;14.63;9.58;;;;;;;2.03;74.65;97912.26;1794902;79;29058;-78
2021/04/13 06:31:05;;;;;;;32.17;16.57;;;;;;;2.00;74.54;97905.05;1793822;79;25820;-78
2021/04/13 06:33:33;;;;;;;43.48;21.87;;;;;;;2.01;74.43;97906.72;1794549;79;25719;-78
2021/04/13 06:36:03;;;;;;;32.10;18.12;;;;;;;1.97;74.29;97907.50;1794624;79;26288;-78
2021/04/13 06:38:31;;;;;;;18.98;10.80;;;;;;;1.97;74.43;97909.32;1794604;79;25739;-79
2021/04/13 06:41:45;;;;;;;28.50;17.25;;;;;;;1.85;74.46;97909.98;1794354;79;28030;-79
2021/04/13 06:44:30;;;;;;;18.17;10.13;;;;;;;1.87;74.76;97913.84;1763019;79;25818;-78
2021/04/13 06:47:41;;;;;;;15.75;9.60;;;;;;;1.98;74.86;97914.50;1784212;79;25786;-78
2021/04/13 06:50:33;;;;;;;18.00;12.63;;;;;;;1.98;74.65;97916.33;1778237;79;25727;-78
2021/04/13 06:53:18;;;;;;;13.28;10.05;;;;;;;2.03;74.83;97920.25;1794629;79;25784;-78
2021/04/13 06:56:26;;;;;;;12.95;9.83;;;;;;;2.08;74.61;97914.47;1771757;79;28464;-78
2021/04/13 06:59:14;;;;;;;13.65;9.93;;;;;;;2.06;74.53;97920.42;1763095;79;26407;-78
2021/04/13 07:01:59;;;;;;;9.93;8.00;;;;;;;2.03;74.45;97922.06;1763040;79;25698;-78
2021/04/13 07:04:58;;;;;;;12.23;10.20;;;;;;;2.01;74.42;97921.38;1763721;79;26148;-78
2021/04/13 07:07:56;;;;;;;13.58;9.48;;;;;;;2.04;74.59;97923.75;1794674;79;25727;-78
2021/04/13 07:10:34;;;;;;;13.28;9.83;;;;;;;2.04;74.56;97917.94;1789569;79;28349;-77
2021/04/13 07:13:22;;;;;;;13.00;9.73;;;;;;;2.06;74.51;97924.42;1762928;79;25727;-77
2021/04/13 07:16:15;;;;;;;14.03;10.35;;;;;;;2.04;74.47;97918.42;1713679;81;26784;-77
2021/04/13 07:19:00;;;;;;;10.00;8.48;;;;;;;2.06;74.55;97925.75;1735077;81;26077;-77
2021/04/13 07:21:50;;;;;;;10.82;8.23;;;;;;;2.08;74.53;97927.78;1741339;79;25928;-77
2021/04/13 07:24:29;;;;;;;12.13;8.30;;;;;;;2.08;74.41;97923.78;1738450;80;27595;-77
2021/04/13 07:30:05;;;;;;;10.48;7.80;;;;;;;2.09;74.43;97926.80;1873004;76;34806;-76
2021/04/13 07:32:36;;;;;;;13.00;8.78;;;;;;;2.01;74.40;97931.53;1822860;77;26613;-76
2021/04/13 07:35:07;;;;;;;10.85;7.75;;;;;;;2.02;74.73;97923.05;1836020;77;27633;-76
2021/04/13 07:37:49;;;;;;;11.53;8.05;;;;;;;2.05;74.66;97920.11;1841129;77;25800;-76
2021/04/13 07:40:25;;;;;;;9.00;7.47;;;;;;;2.03;74.50;97926.06;1846187;77;25841;-76
2021/04/13 07:43:00;;;;;;;12.82;8.73;;;;;;;1.88;74.51;97910.20;1837741;77;25734;-76
2021/04/13 07:46:07;;;;;;;17.23;11.70;;;;;;;1.96;74.62;97927.12;1844638;77;25750;-77
2021/04/13 07:49:14;;;;;;;17.55;14.07;;;;;;;1.89;74.57;97926.52;1852262;76;27568;-76
2021/04/13 07:52:01;;;;;;;30.82;20.57;;;;;;;1.66;74.61;97929.52;1852204;77;25690;-77
2021/04/13 07:55:08;;;;;;;18.20;13.30;;;;;;;1.59;74.78;97931.55;1811763;77;25279;-76
2021/04/13 07:57:57;;;;;;;14.70;10.90;;;;;;;1.59;74.97;97927.55;1796353;77;25758;-77
2021/04/13 08:00:34;;;;;;;10.60;8.60;;;;;;;1.68;75.22;97932.88;1825859;77;25749;-77
2021/04/13 08:03:24;;;;;;;11.50;7.95;;;;;;;1.72;74.97;97932.92;1823797;77;28358;-77
2021/04/13 08:05:58;;;;;;;11.95;8.98;;;;;;;1.75;74.96;97932.64;1807141;77;25798;-77
2021/04/13 08:08:41;;;;;;;13.62;9.30;;;;;;;1.83;74.97;97935.07;1842247;77;26220;-78
2021/04/13 08:11:20;;;;;;;10.30;7.87;;;;;;;1.88;74.91;97928.83;1788758;78;25829;-76
2021/04/13 08:13:52;;;;;;;11.60;8.63;;;;;;;1.86;74.99;97928.97;1818949;77;25865;-77
2021/04/13 08:16:38;;;;;;;8.18;6.40;;;;;;;1.85;75.14;97921.97;1818985;77;26733;-78
2021/04/13 08:19:32;;;;;;;7.17;5.67;;;;;;;1.85;75.00;97924.63;1818705;77;25358;-77
2021/04/13 08:22:04;;;;;;;8.33;5.95;;;;;;;1.90;75.04;97934.86;1818861;77;25797;-78
2021/04/13 08:24:40;;;;;;;7.35;6.15;;;;;;;1.92;75.13;97927.57;1818931;77;26259;-77
2021/04/13 08:27:39;;;;;;;9.55;6.58;;;;;;;1.99;75.12;97923.33;1847630;77;25785;-77
2021/04/13 08:30:20;;;;;;;11.40;7.35;;;;;;;2.04;75.04;97921.09;1844764;77;27666;-78
2021/04/13 08:33:20;;;;;;;11.12;8.03;;;;;;;2.10;74.96;97923.16;1832011;77;25686;-77
2021/04/13 08:36:15;;;;;;;11.28;7.62;;;;;;;2.16;74.92;97922.58;1797818;77;26297;-77
2021/04/13 08:39:08;;;;;;;16.77;9.00;;;;;;;2.20;74.81;97923.11;1833352;77;26136;-78
2021/04/13 08:41:47;;;;;;;;;;;;;;;2.22;74.75;97923.80;1839623;77;25660;-77
2021/04/13 08:44:34;;;;;;;11.40;9.90;;;;;;;2.24;74.82;97918.69;1851210;76;28431;-77
2021/04/13 08:47:19;;;;;;;11.90;6.92;;;;;;;2.23;74.83;97921.49;1851604;77;25686;-77
2021/04/13 08:49:57;;;;;;;10.85;7.17;;;;;;;2.32;74.87;97919.27;1851608;77;26023;-77
2021/04/13 08:52:36;;;;;;;25.08;13.93;;;;;;;2.25;74.75;97920.37;1847040;77;25792;-77
2021/04/13 08:55:22;;;;;;;34.35;21.97;;;;;;;2.30;74.79;97926.08;1835166;77;25664;-78
2021/04/13 08:58:17;;;;;;;28.45;18.87;;;;;;;2.37;74.86;97929.84;1844925;77;28397;-78
2021/04/13 09:00:47;;;;;;;31.82;21.97;;;;;;;2.44;74.80;97926.92;1840854;77;25651;-77
2021/04/13 09:03:22;;;;;;;24.98;18.40;;;;;;;2.46;74.60;97929.45;1816566;78;26374;-77
2021/04/13 09:06:10;;;;;;;17.98;11.57;;;;;;;2.49;74.56;97922.00;1842604;77;26274;-77
2021/04/13 09:09:04;;;;;;;19.90;12.23;;;;;;;2.49;74.46;97916.67;1785653;77;25783;-77
2021/04/13 09:12:05;;;;;;;40.38;19.62;;;;;;;2.47;74.47;97918.64;1827861;77;27713;-77
2021/04/13 09:14:53;;;;;;;69.80;28.83;;;;;;;2.46;74.36;97915.63;1852017;77;26182;-77
2021/04/13 09:17:53;;;;;;;75.90;34.03;;;;;;;2.47;74.45;97915.98;1854895;77;25769;-77
2021/04/13 09:20:41;;;;;;;25.60;15.03;;;;;;;2.49;74.44;97925.16;1851690;77;26335;-77
2021/04/13 09:23:39;;;;;;;18.70;11.70;;;;;;;2.48;74.44;97924.32;1826530;77;25789;-78
2021/04/13 09:26:48;;;;;;;22.75;14.43;;;;;;;2.46;74.37;97914.79;1816951;77;27488;-77
2021/04/13 09:29:39;;;;;;;24.18;14.87;;;;;;;2.49;74.40;97915.34;1813751;77;25783;-78
2021/04/13 09:35:34;;;;;;;27.05;15.10;;;;;;;2.48;74.45;97908.33;1817407;76;34709;-79
2021/04/13 09:38:42;;;;;;;24.63;14.35;;;;;;;2.46;74.57;97902.30;1809729;78;25695;-78
2021/04/13 09:41:39;;;;;;;26.25;16.52;;;;;;;2.50;74.62;97908.19;1782961;78;28000;-79
2021/04/13 09:44:24;;;;;;;17.45;11.78;;;;;;;2.48;74.47;97908.33;1782239;78;25422;-78
2021/04/13 09:47:09;;;;;;;37.88;23.20;;;;;;;2.48;74.42;97906.16;1803770;78;25807;-78
2021/04/13 09:50:26;;;;;;;10.48;7.28;;;;;;;2.50;74.47;97902.36;1784177;78;25724;-78
2021/04/13 09:53:34;;;;;;;19.32;12.55;;;;;;;2.49;74.51;97905.17;1805390;78;25828;-78
2021/04/13 09:56:34;;;;;;;24.72;15.88;;;;;;;2.54;74.45;97893.55;1790007;77;28401;-78
2021/04/13 09:59:57;;;;;;;18.15;11.10;;;;;;;2.59;74.58;97898.45;1803986;78;25809;-78
2021/04/13 10:02:48;;;;;;;19.65;11.97;;;;;;;2.59;74.39;97895.78;1796209;77;25753;-77
2021/04/13 10:05:20;;;;;;;63.75;35.30;;;;;;;2.50;74.58;97895.70;1792291;78;26299;-77
2021/04/13 10:08:05;;;;;;;47.98;36.90;;;;;;;2.50;74.72;97890.37;1771139;79;25797;-77
2021/04/13 10:10:44;;;;;;;17.75;12.60;;;;;;;2.52;74.75;97889.73;1785899;78;27480;-77
2021/04/13 10:13:53;;;;;;;14.15;10.15;;;;;;;2.58;74.66;97890.11;1788506;78;25812;-77
2021/04/13 10:17:03;;;;;;;14.07;9.13;;;;;;;2.66;74.70;97878.19;1788820;78;25774;-78
2021/04/13 10:19:57;;;;;;;11.25;8.40;;;;;;;2.64;74.27;97889.03;1783438;78;25755;-78
2021/04/13 10:23:02;;;;;;;11.65;7.35;;;;;;;2.67;74.37;97890.53;1784889;78;25700;-78
2021/04/13 10:25:58;;;;;;;13.55;7.60;;;;;;;2.72;74.36;97884.27;1803079;78;27690;-78
2021/04/13 10:28:56;;;;;;;10.38;7.60;;;;;;;2.74;74.36;97876.97;1796699;78;26147;-78
2021/04/13 10:31:49;;;;;;;16.65;10.50;;;;;;;2.78;74.32;97871.66;1796083;78;25760;-78
2021/04/13 10:34:37;;;;;;;12.23;8.50;;;;;;;2.84;74.21;97864.40;1797499;78;25831;-78
2021/04/13 10:37:45;;;;;;;16.65;11.30;;;;;;;2.88;74.16;97872.45;1802222;78;25296;-78
2021/04/13 10:40:30;;;;;;;12.00;7.50;;;;;;;2.89;74.31;97864.80;1800918;78;27468;-78
2021/04/13 10:43:33;;;;;;;10.45;7.70;;;;;;;2.86;74.12;97867.76;1793459;78;25541;-78
2021/04/13 10:46:32;;;;;;;11.45;7.95;;;;;;;2.82;74.12;97869.04;1792275;78;25691;-78
2021/04/13 10:49:32;;;;;;;13.35;8.28;;;;;;;2.80;74.09;97863.86;1793021;78;25748;-78
2021/04/13 10:52:34;;;;;;;15.15;11.10;;;;;;;2.81;74.10;97860.20;1810940;77;25847;-78
2021/04/13 10:55:09;;;;;;;12.58;8.53;;;;;;;2.84;74.21;97854.58;1792905;78;28459;-78
2021/04/13 10:58:18;;;;;;;15.43;9.90;;;;;;;2.92;74.17;97856.47;1792661;78;26038;-79
2021/04/13 11:01:14;;;;;;;17.50;11.40;;;;;;;2.92;74.17;97853.80;1815812;78;25666;-78
2021/04/13 11:04:17;;;;;;;18.75;11.53;;;;;;;2.95;74.12;97852.66;1793017;78;25783;-78
2021/04/13 11:07:40;;;;;;;13.98;9.95;;;;;;;2.95;74.10;97854.84;1726558;83;25779;-78
2021/04/13 11:10:23;;;;;;;;;;;;;;;2.93;73.98;97847.48;1712500;83;28505;-79
2021/04/13 11:13:37;;;;;;;16.52;9.50;;;;;;;2.95;74.18;97846.84;1726599;82;26338;-79
2021/04/13 11:16:43;;;;;;;16.97;10.85;;;;;;;2.98;74.19;97847.03;1710886;83;26451;-79
2021/04/13 11:19:35;;;;;;;13.40;9.28;;;;;;;3.01;74.03;97849.41;1726431;81;25756;-79
2021/04/13 11:22:43;;;;;;;13.15;8.80;;;;;;;3.05;74.08;97840.08;1726536;83;25693;-79
2021/04/13 11:25:53;;;;;;;13.83;8.98;;;;;;;3.13;74.29;97846.34;1726433;83;27513;-79
2021/04/13 11:28:38;;;;;;;13.20;8.90;;;;;;;3.25;74.25;97845.61;1709457;81;26278;-78
2021/04/13 11:31:31;;;;;;;14.65;8.90;;;;;;;3.33;74.20;97839.48;1726631;82;25793;-78
2021/04/13 11:34:15;;;;;;;13.18;8.90;;;;;;;3.38;74.20;97835.86;1713643;82;26346;-78
2021/04/13 11:37:05;;;;;;;16.52;9.55;;;;;;;3.43;74.10;97826.88;1726542;81;25876;-78
2021/04/13 11:40:13;;;;;;;14.98;10.15;;;;;;;3.48;74.01;97829.43;1726574;81;27509;-78
2021/04/13 11:42:42;;;;;;;13.83;9.58;;;;;;;3.47;73.98;97824.24;1706864;83;26483;-79
2021/04/13 11:45:50;;;;;;;15.83;9.80;;;;;;;3.54;74.11;97819.94;1726665;82;25763;-78
2021/04/13 11:48:44;;;;;;;14.15;9.13;;;;;;;3.58;73.94;97824.81;1712550;83;26192;-79
2021/04/13 11:51:32;;;;;;;13.28;8.68;;;;;;;3.60;73.81;97816.66;1726523;81;25829;-79
2021/04/13 11:54:21;;;;;;;14.68;9.73;;;;;;;3.62;73.60;97820.02;1726550;82;27508;-78
2021/04/13 11:57:24;;;;;;;14.23;9.48;;;;;;;3.58;73.47;97818.64;1726404;83;25529;-79
2021/04/13 12:00:19;;;;;;;15.72;10.15;;;;;;;3.56;73.51;97815.28;1726685;83;25787;-79
2021/04/13 12:03:03;;;;;;;13.70;10.08;;;;;;;3.62;73.69;97813.34;1726470;83;25807;-79
2021/04/13 12:05:51;;;;;;;14.10;10.50;;;;;;;3.70;73.73;97805.36;1717880;82;25916;-79
2021/04/13 12:08:38;;;;;;;15.80;10.65;;;;;;;3.77;73.69;97803.72;1704419;84;27716;-79
2021/04/13 12:11:16;;;;;;;15.08;10.93;;;;;;;3.80;73.56;97804.74;1704330;84;26356;-78
2021/04/13 12:13:52;;;;;;;15.70;11.53;;;;;;;3.81;73.53;97803.75;1704537;84;25846;-79
2021/04/13 12:16:46;;;;;;;15.43;10.18;;;;;;;3.83;73.45;97797.76;1704385;84;25668;-78
2021/04/13 12:19:18;;;;;;;14.73;9.88;;;;;;;3.83;73.35;97793.75;1704444;84;25681;-78
2021/04/13 12:22:05;;;;;;;14.25;10.28;;;;;;;3.81;73.22;97798.41;1685142;84;28450;-78
2021/04/13 12:24:45;;;;;;;13.20;9.65;;;;;;;3.78;73.16;97793.38;1702369;84;25828;-78
2021/04/13 12:27:33;;;;;;;16.02;11.45;;;;;;;3.79;73.21;97788.38;1704595;82;25751;-79
2021/04/13 12:30:26;;;;;;;14.70;10.08;;;;;;;3.84;73.33;97787.42;1704332;82;25844;-78
2021/04/13 12:32:53;;;;;;;;;;;;;;;3.90;73.28;97785.92;1706825;84;25965;-78
2021/04/13 12:35:53;;;;;;;15.28;10.45;;;;;;;3.91;73.45;97783.09;1684318;84;28855;-79
2021/04/13 12:38:50;;;;;;;13.22;9.98;;;;;;;3.94;73.41;97768.59;1703926;84;25947;-78
2021/04/13 12:41:24;;;;;;;14.20;9.70;;;;;;;3.96;73.26;97767.94;1704425;84;25747;-78
2021/04/13 12:44:00;;;;;;;15.50;10.05;;;;;;;3.92;73.25;97767.41;1704453;82;26370;-78
2021/04/13 12:46:36;;;;;;;16.67;10.98;;;;;;;3.91;73.16;97767.07;1704483;82;25770;-79
2021/04/13 12:49:14;;;;;;;14.73;10.38;;;;;;;3.93;73.29;97758.91;1704329;82;27494;-78
2021/04/13 12:52:07;;;;;;;13.43;10.20;;;;;;;3.90;73.00;97760.05;1704402;84;25758;-78
2021/04/13 12:54:42;;;;;;;17.35;11.18;;;;;;;3.89;73.11;97756.20;1687666;84;25843;-78
2021/04/13 12:57:23;;;;;;;14.98;11.50;;;;;;;3.90;73.23;97749.38;1704537;84;25300;-78
2021/04/13 13:00:08;;;;;;;17.12;10.90;;;;;;;3.93;73.22;97749.06;1704454;84;25746;-78
2021/04/13 13:02:42;;;;;;;15.85;11.50;;;;;;;3.91;72.99;97745.70;1704085;84;27556;-78
2021/04/13 13:05:30;;;;;;;15.78;10.32;;;;;;;3.93;73.15;97746.39;1706996;82;26240;-78